Time;durP1;ratioP1;P1;durP2;ratioP2;P2;SDS_P1;SDS_P2;PMS_P1;PMS_P2;Temp;Humidity;BMP_temperature;BMP_pressure;BME280_temperature;BME280_humidity;BME280_pressure;Samples;Min_cycle;Max_cycle;Signal;HPM_P1;HPM_P2
2021/10/24 00:00:09;;;;;;;9.67;6.17;;;;;;;;;;6073137;29;20244;-54
2021/10/24 00:03:33;;;;;;;9.57;5.27;;;;;;;;;;6077805;29;20245;-55
2021/10/24 00:06:54;;;;;;;8.90;5.57;;;;;;;;;;6070661;29;20225;-50
2021/10/24 00:10:14;;;;;;;6.57;4.63;;;;;;;;;;6075167;29;20264;-52
2021/10/24 00:13:35;;;;;;;6.77;5.10;;;;;;;;;;6071989;29;20323;-53
2021/10/24 00:16:56;;;;;;;6.40;4.67;;;;;;;;;;6076294;29;20296;-53
2021/10/24 00:20:18;;;;;;;7.10;5.20;;;;;;;;;;6071608;29;20232;-53
2021/10/24 00:23:39;;;;;;;6.80;5.47;;;;;;;;;;6094037;29;20232;-50
2021/10/24 00:27:00;;;;;;;6.30;4.87;;;;;;;;;;6096502;29;20217;-53
2021/10/24 00:30:20;;;;;;;10.60;5.17;;;;;;;;;;6099055;29;20229;-51
2021/10/24 00:33:40;;;;;;;10.17;5.43;;;;;;;;;;6099579;29;20251;-52
2021/10/24 00:37:02;;;;;;;9.87;5.00;;;;;;;;;;6093981;29;21868;-52
2021/10/24 00:40:23;;;;;;;7.07;4.40;;;;;;;;;;6095792;29;20752;-52
2021/10/24 00:43:44;;;;;;;9.13;4.67;;;;;;;;;;6094562;29;20236;-54
2021/10/24 00:47:06;;;;;;;9.27;4.40;;;;;;;;;;6098506;29;20513;-54
2021/10/24 00:50:27;;;;;;;7.50;4.97;;;;;;;;;;6102185;29;20232;-54
2021/10/24 00:53:49;;;;;;;6.40;4.50;;;;;;;;;;6096615;29;20228;-52
2021/10/24 00:57:10;;;;;;;19.00;4.77;;;;;;;;;;6080113;29;20224;-53
2021/10/24 01:00:30;;;;;;;10.53;5.10;;;;;;;;;;6093759;29;20504;-55
2021/10/24 01:03:50;;;;;;;6.17;4.23;;;;;;;;;;6095066;29;20232;-50
2021/10/24 01:07:11;;;;;;;15.23;6.47;;;;;;;;;;6094938;29;20228;-51
2021/10/24 01:10:35;;;;;;;6.57;4.27;;;;;;;;;;6089123;29;20224;-53
2021/10/24 01:13:56;;;;;;;7.80;5.43;;;;;;;;;;6092237;29;20229;-54
2021/10/24 01:17:17;;;;;;;9.60;4.27;;;;;;;;;;6097114;29;20241;-53
2021/10/24 01:20:38;;;;;;;8.03;4.70;;;;;;;;;;6092822;29;20270;-53
2021/10/24 01:24:00;;;;;;;11.77;5.37;;;;;;;;;;6090086;29;20529;-54
2021/10/24 01:27:21;;;;;;;7.87;4.43;;;;;;;;;;6090977;29;20189;-52
2021/10/24 01:30:41;;;;;;;5.67;4.20;;;;;;;;;;6088961;29;20209;-53
2021/10/24 01:34:04;;;;;;;8.20;5.07;;;;;;;;;;6089640;29;20228;-49
2021/10/24 01:37:29;;;;;;;6.87;4.20;;;;;;;;;;6074266;29;20307;-48
2021/10/24 01:40:52;;;;;;;4.23;3.90;;;;;;;;;;6094529;29;20208;-52
2021/10/24 01:44:15;;;;;;;10.17;5.13;;;;;;;;;;6090506;29;20237;-52
2021/10/24 01:47:36;;;;;;;6.27;4.27;;;;;;;;;;6085167;29;20189;-52
2021/10/24 01:50:56;;;;;;;7.30;4.33;;;;;;;;;;6085740;29;20205;-51
2021/10/24 01:54:17;;;;;;;11.73;5.60;;;;;;;;;;6094130;29;21059;-53
2021/10/24 01:57:39;;;;;;;7.03;4.37;;;;;;;;;;6090417;29;20316;-54
2021/10/24 02:01:00;;;;;;;11.47;4.30;;;;;;;;;;6090838;29;20209;-52
2021/10/24 02:04:40;;;;;;;5.70;4.07;;;;;;;;;;6086967;29;20232;-53
2021/10/24 02:08:16;;;;;;;6.97;4.33;;;;;;;;;;6091696;29;20256;-53
2021/10/24 02:11:37;;;;;;;8.03;4.50;;;;;;;;;;6098967;29;20205;-51
2021/10/24 02:14:59;;;;;;;9.30;4.77;;;;;;;;;;6095202;29;20244;-52
2021/10/24 02:18:20;;;;;;;8.30;4.27;;;;;;;;;;6095750;29;20626;-51
2021/10/24 02:21:40;;;;;;;8.83;5.23;;;;;;;;;;6094182;29;20212;-48
2021/10/24 02:25:01;;;;;;;6.67;4.20;;;;;;;;;;6089108;29;20225;-54
2021/10/24 02:28:22;;;;;;;8.40;4.20;;;;;;;;;;6078753;29;21000;-55
2021/10/24 02:31:45;;;;;;;10.10;4.53;;;;;;;;;;6094187;29;20295;-53
2021/10/24 02:35:20;;;;;;;8.23;4.40;;;;;;;;;;6084833;29;20244;-52
2021/10/24 02:38:41;;;;;;;8.13;4.97;;;;;;;;;;6093076;29;20630;-55
2021/10/24 02:42:05;;;;;;;12.27;6.57;;;;;;;;;;6093018;29;20307;-53
2021/10/24 02:45:26;;;;;;;8.97;5.00;;;;;;;;;;6096210;29;20217;-50
2021/10/24 02:48:48;;;;;;;7.43;4.57;;;;;;;;;;6092585;29;20236;-52
2021/10/24 02:52:09;;;;;;;6.67;3.93;;;;;;;;;;6093631;29;20204;-53
2021/10/24 02:55:32;;;;;;;7.43;4.67;;;;;;;;;;6097012;29;20606;-53
2021/10/24 02:58:53;;;;;;;9.53;5.20;;;;;;;;;;6095318;29;22017;-55
2021/10/24 03:02:15;;;;;;;6.70;4.13;;;;;;;;;;6096754;29;20220;-54
2021/10/24 03:05:37;;;;;;;12.33;5.43;;;;;;;;;;6104309;29;20474;-51
2021/10/24 03:08:58;;;;;;;6.97;4.77;;;;;;;;;;6097155;29;20259;-49
2021/10/24 03:12:18;;;;;;;5.80;4.27;;;;;;;;;;6085475;29;20287;-53
2021/10/24 03:15:39;;;;;;;9.00;4.47;;;;;;;;;;6092387;29;20217;-55
2021/10/24 03:19:00;;;;;;;6.27;4.03;;;;;;;;;;6093799;29;20241;-50
2021/10/24 03:22:22;;;;;;;8.07;4.60;;;;;;;;;;6094801;29;20193;-52
2021/10/24 03:25:43;;;;;;;8.20;4.23;;;;;;;;;;6083704;29;20212;-50
2021/10/24 03:29:03;;;;;;;6.13;3.90;;;;;;;;;;6093609;29;20245;-52
2021/10/24 03:32:24;;;;;;;11.30;4.37;;;;;;;;;;6093888;29;20212;-55
2021/10/24 03:35:46;;;;;;;5.33;4.17;;;;;;;;;;6090936;29;20330;-53
2021/10/24 03:39:09;;;;;;;8.43;3.90;;;;;;;;;;6088716;29;20229;-53
2021/10/24 03:42:31;;;;;;;5.17;4.67;;;;;;;;;;6081547;29;20197;-53
2021/10/24 03:45:51;;;;;;;5.20;2.97;;;;;;;;;;6093747;29;20209;-52
2021/10/24 03:49:12;;;;;;;4.93;4.00;;;;;;;;;;6094129;29;20232;-49
2021/10/24 03:52:36;;;;;;;5.87;3.93;;;;;;;;;;6091484;29;20208;-52
2021/10/24 03:55:58;;;;;;;5.77;3.73;;;;;;;;;;6093295;29;20205;-52
2021/10/24 03:59:18;;;;;;;7.03;3.63;;;;;;;;;;6092332;29;20268;-51
2021/10/24 04:02:50;;;;;;;4.83;3.87;;;;;;;;;;6089762;29;20240;-55
2021/10/24 04:06:11;;;;;;;9.53;4.57;;;;;;;;;;6092413;29;20228;-54
2021/10/24 04:09:31;;;;;;;17.97;12.77;;;;;;;;;;6093403;29;20236;-54
2021/10/24 04:12:53;;;;;;;6.23;4.40;;;;;;;;;;6091274;29;20226;-50
2021/10/24 04:16:14;;;;;;;4.30;3.83;;;;;;;;;;6093571;29;20229;-54
2021/10/24 04:20:01;;;;;;;6.23;3.87;;;;;;;;;;6087162;29;20224;-52
2021/10/24 04:23:21;;;;;;;7.93;4.13;;;;;;;;;;6093177;29;20240;-54
2021/10/24 04:26:42;;;;;;;6.40;3.87;;;;;;;;;;6090910;29;20197;-51
2021/10/24 04:30:07;;;;;;;5.93;4.07;;;;;;;;;;6093820;29;21846;-51
2021/10/24 04:33:28;;;;;;;7.27;4.80;;;;;;;;;;6094361;29;20623;-55
2021/10/24 04:36:48;;;;;;;10.90;4.33;;;;;;;;;;6091329;29;20225;-53
2021/10/24 04:40:10;;;;;;;10.20;4.57;;;;;;;;;;6091917;29;20240;-54
2021/10/24 04:43:42;;;;;;;7.60;3.73;;;;;;;;;;6087366;29;20666;-53
2021/10/24 04:47:06;;;;;;;6.47;5.07;;;;;;;;;;6092491;29;20201;-54
2021/10/24 04:50:27;;;;;;;5.17;3.50;;;;;;;;;;6089533;29;20228;-52
2021/10/24 04:53:47;;;;;;;8.90;4.30;;;;;;;;;;6089930;29;20236;-53
2021/10/24 04:57:08;;;;;;;6.63;4.03;;;;;;;;;;6082894;29;20224;-56
2021/10/24 05:00:29;;;;;;;6.80;3.83;;;;;;;;;;6090243;29;20224;-54
2021/10/24 05:03:51;;;;;;;8.50;4.67;;;;;;;;;;6091267;29;20244;-55
2021/10/24 05:07:13;;;;;;;6.70;4.70;;;;;;;;;;6093951;29;20213;-52
2021/10/24 05:10:34;;;;;;;12.47;4.83;;;;;;;;;;6088971;29;20249;-55
2021/10/24 05:13:55;;;;;;;6.63;5.07;;;;;;;;;;6092825;29;21732;-49
2021/10/24 05:17:16;;;;;;;7.30;4.53;;;;;;;;;;6092126;29;20603;-50
2021/10/24 05:20:38;;;;;;;13.60;5.07;;;;;;;;;;6093785;29;20228;-54
2021/10/24 05:23:59;;;;;;;9.43;5.33;;;;;;;;;;6092386;29;20232;-52
2021/10/24 05:27:19;;;;;;;9.30;5.83;;;;;;;;;;6080255;29;20281;-49
2021/10/24 05:30:40;;;;;;;8.90;4.97;;;;;;;;;;6090688;29;20200;-51
2021/10/24 05:34:00;;;;;;;6.87;4.93;;;;;;;;;;6095793;29;20228;-53
2021/10/24 05:37:33;;;;;;;10.83;5.27;;;;;;;;;;6092718;29;20208;-53
2021/10/24 05:40:54;;;;;;;11.30;4.90;;;;;;;;;;6095526;29;20228;-52
2021/10/24 05:44:19;;;;;;;14.87;6.07;;;;;;;;;;6095220;29;20562;-49
2021/10/24 05:47:41;;;;;;;8.40;5.33;;;;;;;;;;6092587;29;20236;-51
2021/10/24 05:51:10;;;;;;;8.00;5.70;;;;;;;;;;6096713;29;20200;-52
2021/10/24 05:54:33;;;;;;;10.30;5.17;;;;;;;;;;6094470;29;20229;-54
2021/10/24 05:57:54;;;;;;;11.80;5.80;;;;;;;;;;6092494;29;20241;-53
2021/10/24 06:01:29;;;;;;;13.30;5.73;;;;;;;;;;6088664;29;20520;-51
2021/10/24 06:05:08;;;;;;;7.17;4.87;;;;;;;;;;6098645;29;20583;-51
2021/10/24 06:08:29;;;;;;;8.00;5.70;;;;;;;;;;6098155;29;20232;-52
2021/10/24 06:11:57;;;;;;;10.30;5.63;;;;;;;;;;6088229;29;20228;-52
2021/10/24 06:15:19;;;;;;;10.33;6.40;;;;;;;;;;6080554;29;20303;-53
2021/10/24 06:18:40;;;;;;;9.30;5.40;;;;;;;;;;6100706;29;20245;-51
2021/10/24 06:22:01;;;;;;;7.47;5.40;;;;;;;;;;6090713;29;20217;-55
2021/10/24 06:25:22;;;;;;;6.37;4.17;;;;;;;;;;6084245;29;20248;-50
2021/10/24 06:28:51;;;;;;;11.07;5.23;;;;;;;;;;6093581;29;20232;-51
2021/10/24 06:32:12;;;;;;;8.37;5.83;;;;;;;;;;6093002;29;20209;-50
2021/10/24 06:36:11;;;;;;;10.57;5.30;;;;;;;;;;6047043;29;20261;-54
2021/10/24 06:39:50;;;;;;;7.87;4.53;;;;;;;;;;6064536;29;20256;-53
2021/10/24 06:43:11;;;;;;;7.17;5.07;;;;;;;;;;6091635;29;20251;-54
2021/10/24 06:47:02;;;;;;;8.10;6.17;;;;;;;;;;6063453;29;20205;-51
2021/10/24 06:50:55;;;;;;;7.70;4.93;;;;;;;;;;6058894;29;20523;-52
2021/10/24 06:54:53;;;;;;;7.23;4.70;;;;;;;;;;6090073;29;20232;-54
2021/10/24 06:58:43;;;;;;;11.60;6.57;;;;;;;;;;6072710;29;20510;-50
2021/10/24 07:02:31;;;;;;;6.70;5.33;;;;;;;;;;6090754;29;20442;-51
2021/10/24 07:06:16;;;;;;;6.80;5.00;;;;;;;;;;6091069;29;20292;-53
2021/10/24 07:09:57;;;;;;;9.07;5.50;;;;;;;;;;6083935;29;20331;-48
2021/10/24 07:13:18;;;;;;;11.70;5.77;;;;;;;;;;6096333;29;20279;-55
2021/10/24 07:16:52;;;;;;;7.47;6.23;;;;;;;;;;6092780;29;20880;-54
2021/10/24 07:20:14;;;;;;;10.13;5.27;;;;;;;;;;6093944;29;20236;-50
2021/10/24 07:23:47;;;;;;;10.00;5.53;;;;;;;;;;6093225;29;20674;-52
2021/10/24 07:27:13;;;;;;;8.57;4.50;;;;;;;;;;6093237;29;20196;-50
2021/10/24 07:30:34;;;;;;;8.80;5.77;;;;;;;;;;6093269;29;20219;-54
2021/10/24 07:33:54;;;;;;;11.90;5.10;;;;;;;;;;6096129;29;20238;-53
2021/10/24 07:37:25;;;;;;;9.73;4.73;;;;;;;;;;6096863;29;20212;-52
2021/10/24 07:40:48;;;;;;;6.53;4.20;;;;;;;;;;6081755;29;20678;-53
2021/10/24 07:44:11;;;;;;;6.20;5.53;;;;;;;;;;6100488;29;20255;-52
2021/10/24 07:47:32;;;;;;;8.20;4.90;;;;;;;;;;6090488;29;20205;-53
2021/10/24 07:50:54;;;;;;;8.10;5.73;;;;;;;;;;6096980;29;20843;-53
2021/10/24 07:54:20;;;;;;;7.20;5.17;;;;;;;;;;6094597;29;20232;-51
2021/10/24 07:57:42;;;;;;;11.53;5.13;;;;;;;;;;6078931;29;20264;-52
2021/10/24 08:01:03;;;;;;;8.67;5.03;;;;;;;;;;6093066;29;20292;-54
2021/10/24 08:04:25;;;;;;;9.23;6.73;;;;;;;;;;6093765;29;20277;-55
2021/10/24 08:07:46;;;;;;;9.83;5.63;;;;;;;;;;6089718;29;20626;-52
2021/10/24 08:11:09;;;;;;;9.10;5.20;;;;;;;;;;6097803;29;20201;-53
2021/10/24 08:14:30;;;;;;;8.23;5.70;;;;;;;;;;6077994;29;20319;-55
2021/10/24 08:17:52;;;;;;;6.63;4.07;;;;;;;;;;6094789;29;20233;-54
2021/10/24 08:21:32;;;;;;;7.20;6.50;;;;;;;;;;6094152;29;20604;-52
2021/10/24 08:24:54;;;;;;;11.93;10.73;;;;;;;;;;6096677;29;20322;-53
2021/10/24 08:28:22;;;;;;;45.87;40.20;;;;;;;;;;6092973;29;20236;-53
2021/10/24 08:31:51;;;;;;;408.13;364.10;;;;;;;;;;6090747;29;20232;-50
2021/10/24 08:35:12;;;;;;;304.53;280.17;;;;;;;;;;6095788;29;20233;-56
2021/10/24 08:38:32;;;;;;;86.30;78.50;;;;;;;;;;6094834;29;20654;-54
2021/10/24 08:41:54;;;;;;;1999.90;999.90;;;;;;;;;;6099182;29;20200;-51
2021/10/24 08:45:16;;;;;;;1154.43;812.97;;;;;;;;;;6089981;29;20240;-53
2021/10/24 08:48:37;;;;;;;271.77;240.70;;;;;;;;;;6089886;29;20816;-54
2021/10/24 08:51:57;;;;;;;175.43;157.77;;;;;;;;;;6088409;29;20212;-51
2021/10/24 08:55:18;;;;;;;11.83;8.60;;;;;;;;;;6092238;29;20524;-55
2021/10/24 08:58:38;;;;;;;8.47;5.97;;;;;;;;;;6096403;29;20288;-56
2021/10/24 09:02:00;;;;;;;7.67;6.03;;;;;;;;;;6097142;29;20197;-55
2021/10/24 09:05:28;;;;;;;8.37;4.43;;;;;;;;;;6085347;29;20224;-57
2021/10/24 09:08:48;;;;;;;13.03;6.17;;;;;;;;;;6090046;29;20232;-52
2021/10/24 09:12:09;;;;;;;6.63;4.10;;;;;;;;;;6092310;29;20201;-54
2021/10/24 09:15:42;;;;;;;7.17;3.93;;;;;;;;;;6094415;29;20225;-57
2021/10/24 09:19:14;;;;;;;9.48;4.63;;;;;;;;;;6094389;29;20691;-56
2021/10/24 09:22:36;;;;;;;9.15;4.35;;;;;;;;;;6095145;29;20231;-57
2021/10/24 09:25:57;;;;;;;7.63;3.83;;;;;;;;;;6093524;29;20266;-57
2021/10/24 09:29:18;;;;;;;5.15;3.58;;;;;;;;;;6092257;29;20237;-55
2021/10/24 09:32:49;;;;;;;3.83;3.30;;;;;;;;;;6097597;29;20755;-54
2021/10/24 09:36:12;;;;;;;7.40;3.60;;;;;;;;;;6094095;29;20213;-54
2021/10/24 09:39:51;;;;;;;6.03;3.13;;;;;;;;;;6086593;29;20961;-57
2021/10/24 09:43:13;;;;;;;5.00;3.67;;;;;;;;;;6089104;29;20232;-53
2021/10/24 09:46:33;;;;;;;5.05;3.53;;;;;;;;;;6093213;29;20495;-56
2021/10/24 09:49:54;;;;;;;5.13;3.63;;;;;;;;;;6082850;29;20319;-56
2021/10/24 09:53:17;;;;;;;5.35;3.80;;;;;;;;;;6089174;29;20248;-55
2021/10/24 09:56:37;;;;;;;7.43;3.70;;;;;;;;;;6086336;29;20212;-56
2021/10/24 10:00:00;;;;;;;4.35;3.28;;;;;;;;;;6072584;29;20233;-56
2021/10/24 10:03:21;;;;;;;4.20;2.67;;;;;;;;;;6091176;29;20232;-53
2021/10/24 10:06:43;;;;;;;6.00;3.00;;;;;;;;;;6093819;29;20200;-55
2021/10/24 10:10:06;;;;;;;5.63;3.30;;;;;;;;;;6093297;29;20224;-57
2021/10/24 10:13:27;;;;;;;4.63;2.95;;;;;;;;;;6092780;29;20322;-56
2021/10/24 10:16:51;;;;;;;7.50;3.10;;;;;;;;;;6090662;29;20205;-55
2021/10/24 10:20:21;;;;;;;7.10;3.30;;;;;;;;;;6088294;29;20240;-56
2021/10/24 10:23:41;;;;;;;5.28;3.60;;;;;;;;;;6091515;29;20232;-57
2021/10/24 10:27:23;;;;;;;4.82;3.13;;;;;;;;;;6086980;29;20217;-56
2021/10/24 10:30:46;;;;;;;7.18;3.20;;;;;;;;;;6094263;29;20249;-54
2021/10/24 10:34:08;;;;;;;5.47;3.38;;;;;;;;;;6089413;29;20236;-55
2021/10/24 10:37:39;;;;;;;5.22;3.50;;;;;;;;;;6092978;29;20209;-54
2021/10/24 10:41:00;;;;;;;3.08;2.33;;;;;;;;;;6094083;29;20232;-56
2021/10/24 10:44:21;;;;;;;6.28;3.28;;;;;;;;;;6093503;29;20236;-56
2021/10/24 10:47:52;;;;;;;5.43;2.25;;;;;;;;;;6093145;29;20606;-55
2021/10/24 10:51:19;;;;;;;3.70;3.40;;;;;;;;;;6092613;29;20215;-55
2021/10/24 10:54:54;;;;;;;4.70;2.80;;;;;;;;;;6090994;29;20332;-55
2021/10/24 10:58:26;;;;;;;5.82;3.10;;;;;;;;;;6083357;29;20323;-56
2021/10/24 11:01:47;;;;;;;5.43;2.50;;;;;;;;;;6092643;29;20213;-55
2021/10/24 11:05:09;;;;;;;5.13;3.50;;;;;;;;;;6084805;29;20237;-53
2021/10/24 11:08:45;;;;;;;6.60;3.03;;;;;;;;;;6096088;29;20228;-54
2021/10/24 11:12:07;;;;;;;4.82;2.95;;;;;;;;;;6092212;29;20209;-51
2021/10/24 11:15:32;;;;;;;5.97;3.28;;;;;;;;;;6074726;29;20745;-54
2021/10/24 11:18:54;;;;;;;4.60;2.83;;;;;;;;;;6068531;29;20229;-54
2021/10/24 11:22:18;;;;;;;3.97;2.65;;;;;;;;;;6074708;29;20216;-56
2021/10/24 11:25:39;;;;;;;6.60;3.05;;;;;;;;;;6074894;29;22037;-53
2021/10/24 11:29:04;;;;;;;3.80;2.20;;;;;;;;;;6076880;29;20225;-52
2021/10/24 11:32:26;;;;;;;4.82;2.53;;;;;;;;;;6073816;29;20232;-53
2021/10/24 11:35:47;;;;;;;5.75;2.78;;;;;;;;;;6081356;29;20580;-56
2021/10/24 11:39:09;;;;;;;5.55;2.78;;;;;;;;;;6072389;29;20260;-54
2021/10/24 11:42:30;;;;;;;3.53;2.83;;;;;;;;;;6075885;29;20237;-53
2021/10/24 11:45:51;;;;;;;4.65;2.72;;;;;;;;;;6074244;29;20198;-53
2021/10/24 11:49:11;;;;;;;4.60;2.50;;;;;;;;;;6079436;29;20224;-54
2021/10/24 11:52:32;;;;;;;4.18;2.42;;;;;;;;;;6078242;29;20221;-54
2021/10/24 11:55:55;;;;;;;6.00;3.60;;;;;;;;;;6078022;29;20473;-54
2021/10/24 11:59:18;;;;;;;4.32;3.00;;;;;;;;;;6080398;29;20241;-52
2021/10/24 12:02:53;;;;;;;3.17;2.85;;;;;;;;;;6096037;29;20655;-50
2021/10/24 12:06:14;;;;;;;5.13;2.38;;;;;;;;;;6095789;29;20193;-54
2021/10/24 12:09:37;;;;;;;2.67;2.28;;;;;;;;;;6095716;29;20674;-52
2021/10/24 12:12:58;;;;;;;4.40;2.70;;;;;;;;;;6093409;29;20236;-52
2021/10/24 12:16:29;;;;;;;3.83;2.55;;;;;;;;;;6096264;29;20213;-50
2021/10/24 12:20:05;;;;;;;5.20;2.40;;;;;;;;;;6092286;29;20228;-55
2021/10/24 12:23:27;;;;;;;2.65;2.08;;;;;;;;;;6094546;29;20997;-55
2021/10/24 12:26:48;;;;;;;6.15;2.60;;;;;;;;;;6072840;29;20214;-53
2021/10/24 12:30:12;;;;;;;2.28;2.05;;;;;;;;;;6076625;29;20256;-53
2021/10/24 12:33:34;;;;;;;4.60;2.75;;;;;;;;;;6071777;29;20236;-55
2021/10/24 12:36:55;;;;;;;4.03;2.35;;;;;;;;;;6077177;29;20523;-51
2021/10/24 12:40:17;;;;;;;4.75;2.60;;;;;;;;;;6076607;29;20228;-53
2021/10/24 12:43:47;;;;;;;6.18;2.60;;;;;;;;;;6074133;29;20535;-54
2021/10/24 12:47:12;;;;;;;4.43;3.00;;;;;;;;;;6073396;29;20212;-53
2021/10/24 12:50:34;;;;;;;3.83;2.28;;;;;;;;;;6075102;29;20226;-54
2021/10/24 12:53:56;;;;;;;4.17;2.53;;;;;;;;;;6074718;29;20466;-55
2021/10/24 12:57:16;;;;;;;3.47;1.88;;;;;;;;;;6079096;29;20706;-55
2021/10/24 13:00:37;;;;;;;3.17;2.63;;;;;;;;;;6071126;29;20228;-56
2021/10/24 13:04:00;;;;;;;6.10;3.00;;;;;;;;;;6073399;29;20236;-54
2021/10/24 13:07:21;;;;;;;5.10;2.93;;;;;;;;;;6071185;29;20212;-53
2021/10/24 13:10:41;;;;;;;4.33;2.53;;;;;;;;;;6076759;29;20584;-54
2021/10/24 13:14:02;;;;;;;4.40;2.10;;;;;;;;;;6072962;29;20228;-53
2021/10/24 13:17:23;;;;;;;4.57;2.40;;;;;;;;;;6074637;29;20202;-52
2021/10/24 13:20:46;;;;;;;7.23;3.27;;;;;;;;;;6075372;29;20209;-54
2021/10/24 13:24:08;;;;;;;2.43;1.93;;;;;;;;;;6075487;29;20612;-53
2021/10/24 13:27:29;;;;;;;5.63;2.47;;;;;;;;;;6075061;29;20630;-55
2021/10/24 13:30:49;;;;;;;4.40;2.40;;;;;;;;;;6074194;29;20201;-55
2021/10/24 13:34:10;;;;;;;3.67;2.77;;;;;;;;;;6072570;29;20232;-52
2021/10/24 13:37:32;;;;;;;4.00;2.43;;;;;;;;;;6035268;29;20474;-53
2021/10/24 13:40:52;;;;;;;4.93;1.77;;;;;;;;;;6059407;29;20217;-55
2021/10/24 13:44:13;;;;;;;7.10;1.93;;;;;;;;;;6073499;29;20233;-52
2021/10/24 13:47:33;;;;;;;5.17;2.30;;;;;;;;;;6074372;29;20209;-50
2021/10/24 13:50:54;;;;;;;3.97;2.60;;;;;;;;;;6074256;29;20216;-52
2021/10/24 13:54:16;;;;;;;3.97;1.93;;;;;;;;;;6072708;29;20244;-53
2021/10/24 13:57:36;;;;;;;3.70;2.03;;;;;;;;;;6074517;29;20241;-50
2021/10/24 14:00:57;;;;;;;3.97;2.03;;;;;;;;;;6077037;29;20324;-52
2021/10/24 14:04:17;;;;;;;3.37;2.57;;;;;;;;;;6091439;29;20241;-54
2021/10/24 14:07:39;;;;;;;4.27;2.70;;;;;;;;;;6101336;29;20225;-54
2021/10/24 14:11:01;;;;;;;5.17;2.23;;;;;;;;;;6093973;29;20602;-50
2021/10/24 14:14:22;;;;;;;3.33;2.53;;;;;;;;;;6095805;29;20228;-52
2021/10/24 14:17:43;;;;;;;3.33;1.98;;;;;;;;;;6097924;29;20627;-53
2021/10/24 14:21:05;;;;;;;3.47;2.40;;;;;;;;;;6092750;29;20233;-54
2021/10/24 14:24:25;;;;;;;5.40;3.13;;;;;;;;;;6097766;29;20232;-54
2021/10/24 14:27:47;;;;;;;4.18;2.25;;;;;;;;;;6098345;29;20520;-50
2021/10/24 14:31:09;;;;;;;3.80;2.10;;;;;;;;;;6091591;29;20709;-52
2021/10/24 14:34:29;;;;;;;5.25;2.40;;;;;;;;;;6102942;29;20236;-53
2021/10/24 14:37:50;;;;;;;3.83;2.22;;;;;;;;;;6094226;29;20247;-56
2021/10/24 14:41:11;;;;;;;3.80;2.20;;;;;;;;;;6098592;29;20213;-52
2021/10/24 14:44:32;;;;;;;5.30;3.20;;;;;;;;;;6107244;29;20233;-48
2021/10/24 14:47:53;;;;;;;3.53;2.57;;;;;;;;;;6098764;29;20633;-53
2021/10/24 14:51:13;;;;;;;2.93;2.37;;;;;;;;;;6097588;29;20189;-54
2021/10/24 14:54:34;;;;;;;4.93;2.13;;;;;;;;;;6099827;29;20240;-55
2021/10/24 14:57:55;;;;;;;5.00;2.53;;;;;;;;;;6091615;29;20237;-54
2021/10/24 15:01:16;;;;;;;4.37;3.13;;;;;;;;;;6092871;29;20304;-56
2021/10/24 15:04:38;;;;;;;4.00;2.50;;;;;;;;;;6089679;29;20240;-53
2021/10/24 15:07:58;;;;;;;3.70;2.67;;;;;;;;;;6094091;29;20360;-56
2021/10/24 15:11:19;;;;;;;7.53;2.17;;;;;;;;;;6090841;29;20272;-53
2021/10/24 15:14:40;;;;;;;4.87;2.40;;;;;;;;;;6082967;29;20229;-55
2021/10/24 15:18:01;;;;;;;5.00;2.73;;;;;;;;;;6090632;29;20247;-53
2021/10/24 15:21:21;;;;;;;5.80;2.50;;;;;;;;;;6095564;29;20586;-54
2021/10/24 15:24:42;;;;;;;4.03;1.90;;;;;;;;;;6090439;29;20331;-53
2021/10/24 15:28:02;;;;;;;4.33;2.30;;;;;;;;;;6089310;29;20700;-56
2021/10/24 15:31:24;;;;;;;5.80;3.57;;;;;;;;;;6092620;29;20201;-56
2021/10/24 15:34:46;;;;;;;5.00;2.73;;;;;;;;;;6091448;29;20256;-55
2021/10/24 15:38:06;;;;;;;4.30;2.90;;;;;;;;;;6096032;29;20973;-56
2021/10/24 15:41:27;;;;;;;4.53;2.10;;;;;;;;;;6089944;29;20212;-55
2021/10/24 15:44:47;;;;;;;6.10;3.00;;;;;;;;;;6095831;29;20972;-53
2021/10/24 15:48:08;;;;;;;6.17;3.33;;;;;;;;;;6101650;29;20229;-56
2021/10/24 15:51:30;;;;;;;4.87;2.63;;;;;;;;;;6095646;29;20718;-51
2021/10/24 15:54:51;;;;;;;2.47;2.17;;;;;;;;;;6093490;29;20240;-54
2021/10/24 15:58:15;;;;;;;6.83;3.07;;;;;;;;;;6094543;29;20673;-53
2021/10/24 16:01:37;;;;;;;5.07;3.30;;;;;;;;;;6096623;29;20212;-55
2021/10/24 16:04:58;;;;;;;6.17;3.27;;;;;;;;;;6088719;29;20614;-56
2021/10/24 16:08:20;;;;;;;4.00;2.60;;;;;;;;;;6096171;29;20228;-53
2021/10/24 16:11:40;;;;;;;5.67;3.33;;;;;;;;;;6091735;29;20200;-55
2021/10/24 16:15:01;;;;;;;3.20;2.47;;;;;;;;;;6100868;29;20231;-53
2021/10/24 16:18:21;;;;;;;3.37;2.77;;;;;;;;;;6096510;29;20272;-54
2021/10/24 16:21:42;;;;;;;4.07;2.40;;;;;;;;;;6099350;29;20245;-51
2021/10/24 16:25:04;;;;;;;6.17;3.13;;;;;;;;;;6100752;29;20240;-53
2021/10/24 16:28:25;;;;;;;6.57;2.63;;;;;;;;;;6098128;29;20311;-56
2021/10/24 16:31:45;;;;;;;4.60;2.53;;;;;;;;;;6097874;29;20197;-56
2021/10/24 16:35:06;;;;;;;3.60;2.57;;;;;;;;;;6094734;29;20236;-54
2021/10/24 16:38:26;;;;;;;6.30;3.03;;;;;;;;;;6097323;29;20874;-54
2021/10/24 16:41:48;;;;;;;33.07;30.90;;;;;;;;;;6098875;29;20623;-53
2021/10/24 16:45:10;;;;;;;370.47;229.90;;;;;;;;;;6093831;29;20228;-53
2021/10/24 16:48:31;;;;;;;533.23;492.97;;;;;;;;;;6099901;29;20252;-53
2021/10/24 16:51:51;;;;;;;376.07;342.30;;;;;;;;;;6104413;29;20291;-52
2021/10/24 16:55:12;;;;;;;167.13;123.10;;;;;;;;;;6089082;29;20334;-52
2021/10/24 16:58:34;;;;;;;7.80;6.73;;;;;;;;;;6092580;29;20224;-51
2021/10/24 17:01:55;;;;;;;4.63;2.63;;;;;;;;;;6093571;29;20231;-51
2021/10/24 17:05:15;;;;;;;5.97;3.27;;;;;;;;;;6098798;29;20236;-54
2021/10/24 17:08:36;;;;;;;5.17;4.13;;;;;;;;;;6096503;29;20316;-55
2021/10/24 17:11:56;;;;;;;6.07;3.23;;;;;;;;;;6094496;29;20205;-51
2021/10/24 17:15:18;;;;;;;5.67;2.97;;;;;;;;;;6096589;29;20261;-54
2021/10/24 17:18:39;;;;;;;6.70;2.30;;;;;;;;;;6101621;29;20235;-55
2021/10/24 17:22:00;;;;;;;3.13;2.50;;;;;;;;;;6094198;29;20224;-54
2021/10/24 17:25:20;;;;;;;4.73;3.00;;;;;;;;;;6093650;29;20318;-52
2021/10/24 17:28:40;;;;;;;10.47;4.83;;;;;;;;;;6095749;29;20783;-52
2021/10/24 17:32:02;;;;;;;5.50;3.27;;;;;;;;;;6088729;29;20196;-53
2021/10/24 17:35:23;;;;;;;6.20;3.10;;;;;;;;;;6096159;29;20236;-56
2021/10/24 17:38:43;;;;;;;5.83;4.23;;;;;;;;;;6094191;29;20224;-51
2021/10/24 17:42:04;;;;;;;6.33;3.60;;;;;;;;;;6091407;29;20225;-52
2021/10/24 17:45:25;;;;;;;6.53;4.33;;;;;;;;;;6098198;29;20594;-54
2021/10/24 17:48:47;;;;;;;17.40;4.73;;;;;;;;;;6099667;29;20224;-57
2021/10/24 17:52:09;;;;;;;6.70;3.83;;;;;;;;;;6092754;29;20547;-54
2021/10/24 17:55:30;;;;;;;5.90;4.17;;;;;;;;;;6087950;29;20224;-53
2021/10/24 17:58:51;;;;;;;6.57;4.07;;;;;;;;;;6089475;29;20232;-51
2021/10/24 18:02:12;;;;;;;9.60;5.70;;;;;;;;;;6091891;29;20252;-54
2021/10/24 18:05:34;;;;;;;6.87;4.53;;;;;;;;;;6093781;29;20232;-55
2021/10/24 18:08:55;;;;;;;14.30;4.33;;;;;;;;;;6087965;29;20236;-50
2021/10/24 18:12:15;;;;;;;5.77;3.27;;;;;;;;;;6087720;29;20201;-51
2021/10/24 18:15:36;;;;;;;8.10;3.70;;;;;;;;;;6093275;29;20236;-52
2021/10/24 18:18:57;;;;;;;5.23;4.13;;;;;;;;;;6090593;29;20225;-52
2021/10/24 18:22:18;;;;;;;9.97;3.63;;;;;;;;;;6087629;29;20220;-50
2021/10/24 18:25:40;;;;;;;5.83;3.93;;;;;;;;;;6094737;29;20265;-52
2021/10/24 18:29:00;;;;;;;5.23;4.00;;;;;;;;;;6090987;29;20971;-50
2021/10/24 18:32:21;;;;;;;4.93;3.50;;;;;;;;;;6091922;29;20258;-51
2021/10/24 18:35:41;;;;;;;4.33;3.80;;;;;;;;;;6087899;29;20217;-55
2021/10/24 18:39:05;;;;;;;5.70;3.77;;;;;;;;;;6094068;29;20229;-54
2021/10/24 18:42:26;;;;;;;6.73;4.20;;;;;;;;;;6087522;29;20664;-48
2021/10/24 18:45:48;;;;;;;8.90;4.60;;;;;;;;;;6093569;29;20328;-54
2021/10/24 18:49:08;;;;;;;7.20;4.80;;;;;;;;;;6095707;29;20231;-51
2021/10/24 18:52:29;;;;;;;6.20;4.37;;;;;;;;;;6101494;29;20192;-54
2021/10/24 18:55:53;;;;;;;7.73;4.03;;;;;;;;;;6099406;29;20205;-51
2021/10/24 18:59:13;;;;;;;7.93;4.70;;;;;;;;;;6100689;29;20240;-54
2021/10/24 19:02:35;;;;;;;6.33;4.30;;;;;;;;;;6093877;29;20214;-54
2021/10/24 19:05:56;;;;;;;6.03;3.90;;;;;;;;;;6095540;29;20550;-53
2021/10/24 19:09:16;;;;;;;7.87;3.90;;;;;;;;;;6101300;29;20221;-55
2021/10/24 19:12:38;;;;;;;7.90;4.50;;;;;;;;;;6101662;29;20204;-51
2021/10/24 19:16:00;;;;;;;5.77;3.87;;;;;;;;;;6091655;29;20633;-51
2021/10/24 19:19:20;;;;;;;7.60;3.50;;;;;;;;;;6093254;29;20229;-53
2021/10/24 19:22:41;;;;;;;6.30;3.63;;;;;;;;;;6097413;29;20243;-51
2021/10/24 19:26:02;;;;;;;6.27;3.57;;;;;;;;;;6101015;29;20224;-52
2021/10/24 19:29:24;;;;;;;4.67;3.70;;;;;;;;;;6099248;29;20256;-50
2021/10/24 19:32:44;;;;;;;6.40;4.10;;;;;;;;;;6098082;29;20320;-53
2021/10/24 19:36:05;;;;;;;6.10;4.47;;;;;;;;;;6103149;29;20201;-56
2021/10/24 19:39:26;;;;;;;9.23;4.03;;;;;;;;;;6096672;29;20508;-52
2021/10/24 19:42:46;;;;;;;6.83;4.10;;;;;;;;;;6095001;29;20237;-52
2021/10/24 19:46:08;;;;;;;4.30;3.90;;;;;;;;;;6097903;29;20208;-50
2021/10/24 19:49:29;;;;;;;7.50;4.87;;;;;;;;;;6097700;29;20239;-51
2021/10/24 19:52:49;;;;;;;5.90;4.23;;;;;;;;;;6100094;29;20236;-53
2021/10/24 19:56:18;;;;;;;8.23;5.03;;;;;;;;;;6101526;29;20192;-53
2021/10/24 19:59:38;;;;;;;6.63;4.83;;;;;;;;;;6097894;29;20322;-50
2021/10/24 20:03:00;;;;;;;5.87;3.97;;;;;;;;;;6091088;29;20236;-53
2021/10/24 20:06:21;;;;;;;10.77;5.40;;;;;;;;;;6098706;29;20197;-54
2021/10/24 20:09:41;;;;;;;4.80;4.40;;;;;;;;;;6095649;29;20264;-48
2021/10/24 20:13:02;;;;;;;6.70;4.13;;;;;;;;;;6095672;29;20311;-50